Time;durP1;ratioP1;P1;durP2;ratioP2;P2;SDS_P1;SDS_P2;PMS_P1;PMS_P2;Temp;Humidity;BMP_temperature;BMP_pressure;BME280_temperature;BME280_humidity;BME280_pressure;Samples;Min_cycle;Max_cycle;Signal;HPM_P1;HPM_P2
2024/03/29 00:00:36;;;;;;;3.42;0.90;;;6.80;99.90;;;;;;5046022;28;20423;-87
2024/03/29 00:03:02;;;;;;;1.20;1.00;;;7.50;99.90;;;;;;5064847;28;20431;-84
2024/03/29 00:05:28;;;;;;;0.80;0.60;;;;;;;;;;5062979;28;20408;-85
2024/03/29 00:07:53;;;;;;;3.07;0.67;;;7.40;99.90;;;;;;5044967;28;20448;-86
2024/03/29 00:10:19;;;;;;;1.90;0.80;;;;;;;;;;5064069;28;20396;-85
2024/03/29 00:12:45;;;;;;;2.20;0.90;;;;;;;;;;5045839;28;20413;-86
2024/03/29 00:15:11;;;;;;;1.37;0.80;;;;;;;;;;5065191;28;20758;-87
2024/03/29 00:17:37;;;;;;;1.55;0.70;;;;;;;;;;5052058;28;20748;-84
2024/03/29 00:20:03;;;;;;;1.38;0.60;;;8.10;99.90;;;;;;5073677;28;20857;-84
2024/03/29 00:22:29;;;;;;;1.90;0.70;;;7.40;99.90;;;;;;5061578;28;20392;-84
2024/03/29 00:24:55;;;;;;;1.00;0.80;;;7.90;99.90;;;;;;5033457;28;20922;-84
2024/03/29 00:27:22;;;;;;;1.43;0.80;;;7.40;99.90;;;;;;5026593;28;20415;-85
2024/03/29 00:29:48;;;;;;;0.60;0.40;;;7.80;99.90;;;;;;5043259;28;20402;-85
2024/03/29 00:32:14;;;;;;;1.90;1.00;;;7.40;99.90;;;;;;5043180;28;20909;-84
2024/03/29 00:34:40;;;;;;;1.27;0.60;;;;;;;;;;5056967;28;20389;-84
2024/03/29 00:37:06;;;;;;;1.38;0.70;;;;;;;;;;5052535;28;20406;-84
2024/03/29 00:39:31;;;;;;;1.05;0.60;;;7.80;99.90;;;;;;5020284;28;20394;-84
2024/03/29 00:41:57;;;;;;;1.58;0.70;;;;;;;;;;5038127;28;20394;-84
2024/03/29 00:44:23;;;;;;;1.73;0.65;;;;;;;;;;5020629;28;20407;-85
2024/03/29 00:46:49;;;;;;;2.08;0.70;;;7.80;99.90;;;;;;5037150;28;20387;-84
2024/03/29 00:49:15;;;;;;;0.70;0.50;;;;;;;;;;5037858;28;20398;-83
2024/03/29 00:51:41;;;;;;;0.80;0.70;;;;;;;;;;5020755;28;20383;-83
2024/03/29 00:54:06;;;;;;;1.55;0.70;;;7.80;99.90;;;;;;5038005;28;20398;-83
2024/03/29 00:56:32;;;;;;;1.03;0.50;;;;;;;;;;5024638;28;20788;-83
2024/03/29 00:58:58;;;;;;;0.65;0.43;;;;;;;;;;5039753;28;20493;-84
2024/03/29 01:01:23;;;;;;;1.73;0.80;;;8.70;99.90;;;;;;5067149;28;20404;-84
2024/03/29 01:03:49;;;;;;;1.70;0.60;;;8.00;99.90;;;;;;5077366;28;20388;-84
2024/03/29 01:06:15;;;;;;;2.03;0.60;;;;;;;;;;5076598;28;20388;-84
2024/03/29 01:08:41;;;;;;;0.70;0.60;;;;;;;;;;5079211;28;20380;-84
2024/03/29 01:11:07;;;;;;;1.25;0.50;;;8.80;99.90;;;;;;5063499;28;20384;-84
2024/03/29 01:13:33;;;;;;;1.27;0.57;;;9.10;99.90;;;;;;5049593;28;20396;-84
2024/03/29 01:15:59;;;;;;;1.13;0.68;;;;;;;;;;5057102;28;20400;-84
2024/03/29 01:18:24;;;;;;;1.20;0.50;;;9.10;99.90;;;;;;5040476;28;20389;-84
2024/03/29 01:20:50;;;;;;;0.80;0.50;;;8.40;99.90;;;;;;5041326;28;20484;-84
2024/03/29 01:23:15;;;;;;;1.07;0.50;;;;;;;;;;5054042;28;20387;-84
2024/03/29 01:25:41;;;;;;;0.97;0.50;;;9.40;99.90;;;;;;5061832;28;20461;-85
2024/03/29 01:28:08;;;;;;;2.67;0.50;;;;;;;;;;5046334;28;20393;-84
2024/03/29 01:30:34;;;;;;;0.70;0.45;;;;;;;;;;5061889;28;20388;-84
2024/03/29 01:32:59;;;;;;;0.90;0.43;;;8.80;99.90;;;;;;5060906;28;20398;-85
2024/03/29 01:35:25;;;;;;;2.70;0.50;;;8.80;99.90;;;;;;5062060;28;20490;-84
2024/03/29 01:37:51;;;;;;;0.80;0.40;;;;;;;;;;5062104;28;20397;-85
2024/03/29 01:40:16;;;;;;;2.20;0.70;;;9.70;99.90;;;;;;5070696;28;20386;-85
2024/03/29 01:42:43;;;;;;;1.40;0.50;;;9.60;99.90;;;;;;5063738;28;20451;-84
2024/03/29 01:45:09;;;;;;;0.60;0.40;;;9.00;99.90;;;;;;5038942;28;20917;-84
2024/03/29 01:47:35;;;;;;;0.90;0.50;;;;;;;;;;5038349;28;20445;-84
2024/03/29 01:50:00;;;;;;;1.02;0.73;;;8.90;99.90;;;;;;5058794;28;20870;-84
2024/03/29 01:52:28;;;;;;;0.80;0.50;;;9.20;99.90;;;;;;5058238;28;20389;-84
2024/03/29 01:54:53;;;;;;;1.30;0.80;;;9.50;99.90;;;;;;5059925;28;20385;-83
2024/03/29 01:57:19;;;;;;;0.90;0.40;;;;;;;;;;5050681;28;20906;-84
2024/03/29 01:59:46;;;;;;;1.48;0.50;;;;;;;;;;5027375;28;20471;-84
2024/03/29 02:02:12;;;;;;;0.60;0.50;;;9.60;99.90;;;;;;5046672;28;20399;-85
2024/03/29 02:04:38;;;;;;;0.77;0.50;;;9.20;99.90;;;;;;5044545;28;20410;-84
2024/03/29 02:07:04;;;;;;;0.80;0.40;;;8.90;99.90;;;;;;5043095;28;20390;-85
2024/03/29 02:09:30;;;;;;;1.30;0.50;;;;;;;;;;5025556;28;20385;-85
2024/03/29 02:11:55;;;;;;;1.40;0.70;;;9.10;99.90;;;;;;5024558;28;20371;-84
2024/03/29 02:14:21;;;;;;;0.70;0.47;;;;;;;;;;5044527;28;20387;-84
2024/03/29 02:16:47;;;;;;;0.70;0.57;;;;;;;;;;5027855;28;20397;-84
2024/03/29 02:19:13;;;;;;;0.70;0.50;;;9.00;99.90;;;;;;5044401;28;20398;-86
2024/03/29 02:21:45;;;;;;;1.63;0.60;;;10.00;99.90;;;;;;5042598;28;20383;-84
2024/03/29 02:24:11;;;;;;;1.00;0.60;;;;;;;;;;5051638;28;20501;-83
2024/03/29 02:26:41;;;;;;;0.88;0.60;;;;;;;;;;5064074;28;20385;-84
2024/03/29 02:29:07;;;;;;;1.00;0.50;;;;;;;;;;5064318;28;20427;-85
2024/03/29 02:31:32;;;;;;;2.83;0.55;;;9.60;99.90;;;;;;5063352;28;20397;-84
2024/03/29 02:33:58;;;;;;;0.70;0.40;;;10.10;99.90;;;;;;5062209;28;20368;-83
2024/03/29 02:36:24;;;;;;;0.90;0.50;;;;;;;;;;5062399;28;20488;-83
2024/03/29 02:38:49;;;;;;;0.73;0.50;;;9.50;99.90;;;;;;5063277;28;20404;-84
2024/03/29 02:41:15;;;;;;;0.70;0.53;;;;;;;;;;5062807;28;20389;-83
2024/03/29 02:43:42;;;;;;;1.00;0.60;;;;;;;;;;5060713;28;20382;-84
2024/03/29 02:46:08;;;;;;;1.10;0.50;;;;;;;;;;5062132;28;20405;-86
2024/03/29 02:48:33;;;;;;;1.30;0.50;;;9.70;99.90;;;;;;5061811;28;20377;-83
2024/03/29 02:50:59;;;;;;;0.87;0.60;;;;;;;;;;5063738;28;20416;-84
2024/03/29 02:53:26;;;;;;;0.60;0.40;;;9.70;99.90;;;;;;5063667;28;20460;-83
2024/03/29 02:55:51;;;;;;;0.93;0.40;;;9.90;99.90;;;;;;5062588;28;20386;-84
2024/03/29 02:58:17;;;;;;;0.70;0.50;;;10.10;99.90;;;;;;5043206;28;20417;-85
2024/03/29 03:00:43;;;;;;;0.80;0.40;;;;;;;;;;5042661;28;20852;-84
2024/03/29 03:03:08;;;;;;;0.90;0.40;;;9.60;99.90;;;;;;5023635;28;20818;-84
2024/03/29 03:05:34;;;;;;;0.77;0.40;;;;;;;;;;5022642;28;21124;-84
2024/03/29 03:10:59;;;;;;;0.60;0.50;;;;;;;;;;5041270;28;20390;-84
2024/03/29 03:13:29;;;;;;;0.70;0.32;;;10.20;99.90;;;;;;5023784;28;20441;-84
2024/03/29 03:15:55;;;;;;;1.50;0.60;;;10.30;99.90;;;;;;5040160;28;20383;-84
2024/03/29 03:18:21;;;;;;;0.70;0.50;;;9.60;99.90;;;;;;5024346;28;20399;-83
2024/03/29 03:20:54;;;;;;;1.90;0.40;;;;;;;;;;5022928;28;20383;-84
2024/03/29 03:23:20;;;;;;;1.02;0.50;;;9.50;99.90;;;;;;5023101;28;20387;-84
2024/03/29 03:25:53;;;;;;;0.68;0.50;;;10.30;99.90;;;;;;5041933;28;20460;-84
2024/03/29 03:28:18;;;;;;;0.52;0.50;;;9.70;99.90;;;;;;5042823;28;20389;-83
2024/03/29 03:30:44;;;;;;;0.50;0.40;;;9.70;99.90;;;;;;5044710;28;20919;-84
2024/03/29 03:33:10;;;;;;;0.90;0.50;;;;;;;;;;5044352;28;20381;-83
2024/03/29 03:35:35;;;;;;;0.70;0.50;;;9.90;99.90;;;;;;5057720;28;20783;-84
2024/03/29 03:38:01;;;;;;;0.70;0.50;;;10.50;99.90;;;;;;5059898;28;20896;-84
2024/03/29 03:40:27;;;;;;;1.00;0.50;;;11.90;99.90;;;;;;5043740;28;20400;-84
2024/03/29 03:42:53;;;;;;;0.57;0.40;;;;;;;;;;5060698;28;20385;-85
2024/03/29 03:45:19;;;;;;;0.50;0.40;;;;;;;;;;5059775;28;20530;-85
2024/03/29 03:47:44;;;;;;;0.90;0.40;;;10.10;99.90;;;;;;5057580;28;20375;-85
2024/03/29 03:50:10;;;;;;;1.40;0.50;;;10.60;99.90;;;;;;5059651;28;20749;-84
2024/03/29 03:52:35;;;;;;;0.77;0.40;;;;;;;;;;5041718;28;20430;-84
2024/03/29 03:55:01;;;;;;;0.60;0.40;;;10.80;99.90;;;;;;5057838;28;20521;-83
2024/03/29 03:57:26;;;;;;;1.10;0.50;;;10.10;99.90;;;;;;5028342;28;20417;-84
2024/03/29 03:59:52;;;;;;;0.40;0.30;;;11.80;99.90;;;;;;5040391;28;20414;-85
2024/03/29 04:02:17;;;;;;;0.90;0.50;;;10.10;99.90;;;;;;5030740;28;20394;-85
2024/03/29 04:04:47;;;;;;;0.50;0.50;;;11.00;99.90;;;;;;5039873;28;20414;-85
2024/03/29 04:07:13;;;;;;;0.80;0.50;;;;;;;;;;5035866;28;20398;-85
2024/03/29 04:09:38;;;;;;;0.50;0.40;;;9.20;99.90;;;;;;5051940;28;20371;-85
2024/03/29 04:12:05;;;;;;;0.80;0.40;;;;;;;;;;5055363;28;20395;-85
2024/03/29 04:14:31;;;;;;;1.90;0.60;;;;;;;;;;5044326;28;20388;-85
2024/03/29 04:16:56;;;;;;;1.20;0.50;;;;;;;;;;5040787;28;20391;-83
2024/03/29 04:19:22;;;;;;;0.70;0.50;;;10.30;99.90;;;;;;5021876;28;20387;-84
2024/03/29 04:21:48;;;;;;;1.17;0.60;;;;;;;;;;5039940;28;20477;-84
2024/03/29 04:24:13;;;;;;;1.40;0.50;;;10.30;99.90;;;;;;5037998;28;20413;-84
2024/03/29 04:26:39;;;;;;;0.40;0.30;;;10.40;99.90;;;;;;5060457;28;20443;-84
2024/03/29 04:29:05;;;;;;;0.50;0.30;;;10.70;99.90;;;;;;5040607;28;21026;-84
2024/03/29 04:31:30;;;;;;;0.50;0.40;;;10.70;99.90;;;;;;5043318;28;20389;-84
2024/03/29 04:33:56;;;;;;;0.60;0.50;;;;;;;;;;5054315;28;20476;-83
2024/03/29 04:36:22;;;;;;;0.50;0.40;;;11.10;99.90;;;;;;5068042;28;20421;-84
2024/03/29 04:38:48;;;;;;;0.90;0.40;;;11.10;99.90;;;;;;5101689;22;20857;-81
2024/03/29 04:41:13;;;;;;;0.90;0.43;;;10.30;99.90;;;;;;5094299;28;20432;-80
2024/03/29 04:43:40;;;;;;;0.50;0.30;;;11.30;99.90;;;;;;5092370;28;20435;-81
2024/03/29 04:46:13;;;;;;;0.93;0.40;;;11.10;99.90;;;;;;5091526;28;20405;-81
2024/03/29 04:48:42;;;;;;;0.50;0.40;;;11.10;99.90;;;;;;5093345;28;20386;-81
2024/03/29 04:51:09;;;;;;;0.90;0.50;;;11.40;99.90;;;;;;5092600;28;20840;-81
2024/03/29 04:53:38;;;;;;;0.50;0.30;;;11.50;99.90;;;;;;5099982;28;20405;-82
2024/03/29 04:56:05;;;;;;;0.82;0.43;;;11.00;99.90;;;;;;5102689;28;20370;-79
2024/03/29 04:58:31;;;;;;;0.50;0.40;;;11.00;99.90;;;;;;5103107;28;20543;-80
2024/03/29 05:00:57;;;;;;;1.20;0.60;;;;;;;;;;5097902;28;20390;-80
2024/03/29 05:03:23;;;;;;;1.05;0.50;;;11.10;99.90;;;;;;5093744;28;20384;-80
2024/03/29 05:05:50;;;;;;;0.50;0.40;;;10.50;99.90;;;;;;5094816;28;20493;-80
2024/03/29 05:08:17;;;;;;;1.30;0.40;;;11.20;99.90;;;;;;5134538;28;20382;-80
2024/03/29 05:10:43;;;;;;;1.00;0.40;;;11.40;99.90;;;;;;5134065;28;20382;-82
2024/03/29 05:13:09;;;;;;;0.60;0.40;;;10.60;99.90;;;;;;5112703;28;20383;-82
2024/03/29 05:15:35;;;;;;;1.60;0.60;;;;;;;;;;5085943;28;20496;-80
2024/03/29 05:18:00;;;;;;;0.90;0.68;;;11.10;99.90;;;;;;5079232;28;20461;-80
2024/03/29 05:20:26;;;;;;;2.10;0.60;;;11.40;99.90;;;;;;5090586;28;20831;-80
2024/03/29 05:22:51;;;;;;;0.50;0.50;;;11.20;99.90;;;;;;5079712;28;20383;-80
2024/03/29 05:25:17;;;;;;;0.80;0.50;;;10.90;99.90;;;;;;5088167;28;20394;-80
2024/03/29 05:27:43;;;;;;;0.60;0.40;;;11.10;99.90;;;;;;5091611;28;21091;-81
2024/03/29 05:30:13;;;;;;;1.10;0.30;;;;;;;;;;5090752;28;20385;-81
2024/03/29 05:32:38;;;;;;;0.50;0.30;;;11.10;99.90;;;;;;5091797;28;20461;-81
2024/03/29 05:35:05;;;;;;;0.82;0.40;;;11.50;99.90;;;;;;5078740;28;20911;-81
2024/03/29 05:37:30;;;;;;;1.08;0.77;;;;;;;;;;5070049;28;20431;-81
2024/03/29 05:39:59;;;;;;;0.77;0.40;;;11.20;99.90;;;;;;5071712;28;20475;-81
2024/03/29 05:42:29;;;;;;;0.90;0.60;;;12.50;99.90;;;;;;5071889;28;20383;-81
2024/03/29 05:44:54;;;;;;;1.90;0.60;;;12.20;99.90;;;;;;5071316;28;20423;-81
2024/03/29 05:47:20;;;;;;;1.00;0.40;;;;;;;;;;5070910;28;20490;-80
2024/03/29 05:49:49;;;;;;;0.55;0.55;;;12.60;99.90;;;;;;5071212;28;20387;-81
2024/03/29 05:52:16;;;;;;;0.90;0.60;;;12.10;99.90;;;;;;5070120;28;20434;-80
2024/03/29 05:54:42;;;;;;;0.60;0.40;;;13.00;99.90;;;;;;5070507;28;20423;-81
2024/03/29 05:57:08;;;;;;;1.08;0.50;;;;;;;;;;5074822;28;20832;-81
2024/03/29 05:59:35;;;;;;;0.80;0.50;;;;;;;;;;5082406;28;20457;-81
2024/03/29 06:02:01;;;;;;;2.33;0.60;;;12.40;99.90;;;;;;5080582;28;20441;-81
2024/03/29 06:04:32;;;;;;;0.77;0.50;;;13.00;99.90;;;;;;5075273;28;20403;-81
2024/03/29 06:07:04;;;;;;;0.57;0.50;;;13.10;99.90;;;;;;5074823;28;20395;-81
2024/03/29 06:09:30;;;;;;;1.60;0.63;;;12.70;99.90;;;;;;5074846;28;20395;-81
2024/03/29 06:11:56;;;;;;;1.80;0.80;;;12.70;99.90;;;;;;5090534;28;20386;-82
2024/03/29 06:17:23;;;;;;;1.40;0.60;;;13.40;99.90;;;;;;5097701;28;20381;-81
2024/03/29 06:19:56;;;;;;;0.90;0.73;;;12.40;99.90;;;;;;5097786;28;20389;-81
2024/03/29 06:22:23;;;;;;;1.90;0.60;;;12.50;99.90;;;;;;5096738;28;20382;-80
2024/03/29 06:24:48;;;;;;;1.15;0.70;;;12.10;99.90;;;;;;5095698;28;21113;-81
2024/03/29 06:27:17;;;;;;;1.93;1.00;;;12.00;99.90;;;;;;5094406;28;20382;-81
2024/03/29 06:29:44;;;;;;;1.60;0.90;;;12.50;99.90;;;;;;5096987;28;20518;-81
2024/03/29 06:32:09;;;;;;;1.75;0.80;;;11.90;99.90;;;;;;5095947;28;20386;-81
2024/03/29 06:34:35;;;;;;;2.83;0.88;;;11.40;99.90;;;;;;5095314;28;20378;-81
2024/03/29 06:37:00;;;;;;;0.90;0.70;;;12.00;99.90;;;;;;5092361;28;20925;-82
2024/03/29 06:39:26;;;;;;;2.30;0.90;;;;;;;;;;5078144;28;20400;-80
2024/03/29 06:41:52;;;;;;;1.10;0.90;;;11.80;99.90;;;;;;5091611;28;20413;-81
2024/03/29 06:44:18;;;;;;;0.90;0.80;;;11.00;99.90;;;;;;5096130;28;20425;-80
2024/03/29 06:46:43;;;;;;;1.40;1.00;;;11.00;99.90;;;;;;5102702;28;20386;-81
2024/03/29 06:49:09;;;;;;;2.97;1.00;;;11.50;99.90;;;;;;5107606;28;20395;-81
2024/03/29 06:51:35;;;;;;;2.00;1.00;;;;;;;;;;5094229;28;20386;-81
2024/03/29 06:54:00;;;;;;;1.47;1.00;;;10.70;99.90;;;;;;5103672;28;20964;-83
2024/03/29 06:56:26;;;;;;;1.40;1.00;;;11.20;99.90;;;;;;5115757;28;20778;-82
2024/03/29 06:58:51;;;;;;;0.93;0.82;;;10.70;99.90;;;;;;5104156;28;20374;-82
2024/03/29 07:01:17;;;;;;;2.45;1.20;;;10.90;99.90;;;;;;5094769;28;20437;-82
2024/03/29 07:03:43;;;;;;;1.23;1.07;;;;;;;;;;5094640;28;20409;-81
2024/03/29 07:06:08;;;;;;;1.50;1.10;;;11.50;99.90;;;;;;5095719;28;20475;-82
2024/03/29 07:08:35;;;;;;;1.50;1.00;;;10.70;99.90;;;;;;5099573;28;20384;-82
2024/03/29 07:11:02;;;;;;;1.00;0.90;;;11.00;99.90;;;;;;5115307;28;20388;-82
2024/03/29 07:13:32;;;;;;;1.70;1.13;;;11.20;99.90;;;;;;5114217;28;20452;-81
2024/03/29 07:16:01;;;;;;;1.90;1.30;;;10.60;99.90;;;;;;5114351;28;20376;-81
2024/03/29 07:18:26;;;;;;;1.30;1.20;;;11.20;99.90;;;;;;5114501;28;20379;-81
2024/03/29 07:20:52;;;;;;;1.35;1.20;;;10.50;99.90;;;;;;5115631;28;20899;-82
2024/03/29 07:23:18;;;;;;;1.40;1.20;;;;;;;;;;5115458;28;20392;-82
2024/03/29 07:25:45;;;;;;;2.35;1.25;;;11.00;99.90;;;;;;5095271;28;20402;-82
2024/03/29 07:28:14;;;;;;;2.05;1.40;;;10.90;99.90;;;;;;5094548;28;20378;-81
2024/03/29 07:30:44;;;;;;;3.42;1.70;;;10.40;99.90;;;;;;5095655;28;20401;-81
2024/03/29 07:33:09;;;;;;;2.22;1.70;;;10.80;99.90;;;;;;5093303;28;20461;-82
2024/03/29 07:35:35;;;;;;;2.53;1.40;;;10.80;99.90;;;;;;5081209;28;20945;-81
2024/03/29 07:38:00;;;;;;;1.70;1.43;;;10.50;99.90;;;;;;5077257;28;20399;-80
2024/03/29 07:40:26;;;;;;;1.67;1.40;;;10.70;99.90;;;;;;5083286;28;20391;-81
2024/03/29 07:42:51;;;;;;;1.30;1.10;;;11.30;99.90;;;;;;5082302;28;20380;-80
2024/03/29 07:45:17;;;;;;;2.03;1.30;;;11.40;99.90;;;;;;5078358;28;20408;-80
2024/03/29 07:47:43;;;;;;;2.07;1.20;;;;;;;;;;5074245;28;20380;-80
2024/03/29 07:50:10;;;;;;;1.48;1.00;;;11.40;99.90;;;;;;5072732;28;20474;-80
2024/03/29 07:52:35;;;;;;;1.50;1.20;;;11.70;99.90;;;;;;5073874;28;20483;-80
2024/03/29 07:55:01;;;;;;;1.90;1.20;;;11.20;99.90;;;;;;5079679;28;20379;-80
2024/03/29 07:57:26;;;;;;;2.65;1.40;;;11.50;99.90;;;;;;5079040;28;20393;-80
2024/03/29 07:59:52;;;;;;;1.40;1.10;;;11.90;99.90;;;;;;5079537;28;20379;-79
2024/03/29 08:02:18;;;;;;;1.70;1.10;;;;;;;;;;5076410;28;20424;-79
2024/03/29 08:04:44;;;;;;;1.45;0.90;;;12.30;99.90;;;;;;5076965;28;21004;-80
2024/03/29 08:07:11;;;;;;;1.23;0.80;;;12.50;99.90;;;;;;5074138;28;20395;-81
2024/03/29 08:09:39;;;;;;;1.80;1.20;;;12.20;99.90;;;;;;5073362;28;20380;-81
2024/03/29 08:12:05;;;;;;;0.70;0.70;;;;;;;;;;5073790;28;20433;-81
2024/03/29 08:14:30;;;;;;;1.20;0.60;;;12.20;99.90;;;;;;5073619;28;20895;-80
2024/03/29 08:16:56;;;;;;;1.00;0.70;;;12.70;99.90;;;;;;5073015;28;20380;-80
2024/03/29 08:19:21;;;;;;;1.50;0.90;;;13.10;99.90;;;;;;5073509;28;20755;-80
2024/03/29 08:21:48;;;;;;;1.10;0.60;;;;;;;;;;5073107;28;20477;-81
2024/03/29 08:24:13;;;;;;;2.28;0.80;;;;;;;;;;5080142;28;20750;-81
2024/03/29 08:26:39;;;;;;;2.20;0.80;;;12.60;99.90;;;;;;5093587;28;20378;-81
2024/03/29 08:29:04;;;;;;;1.60;0.70;;;13.20;99.90;;;;;;5093764;28;20401;-81
2024/03/29 08:31:30;;;;;;;2.90;0.70;;;12.90;99.90;;;;;;5094442;28;20893;-80
2024/03/29 08:33:56;;;;;;;0.90;0.60;;;12.40;99.90;;;;;;5092517;28;20375;-81
2024/03/29 08:36:21;;;;;;;1.57;0.93;;;12.40;99.90;;;;;;5073917;28;20868;-82
2024/03/29 08:38:47;;;;;;;1.37;1.00;;;12.10;99.90;;;;;;5081287;28;20398;-81
2024/03/29 08:41:13;;;;;;;2.45;1.65;;;12.40;99.90;;;;;;5103546;28;20901;-81
2024/03/29 08:43:39;;;;;;;1.67;1.50;;;;;;;;;;5113190;28;20918;-81
2024/03/29 08:46:04;;;;;;;2.50;1.60;;;12.80;99.90;;;;;;5114207;28;20836;-81
2024/03/29 08:48:30;;;;;;;2.43;1.40;;;12.30;99.90;;;;;;5113036;28;20380;-81
2024/03/29 08:50:55;;;;;;;1.70;1.40;;;12.80;99.90;;;;;;5113388;28;20372;-81
2024/03/29 08:53:27;;;;;;;1.52;1.40;;;12.20;99.90;;;;;;5113459;28;20384;-81
2024/03/29 08:55:52;;;;;;;1.70;1.40;;;12.70;99.90;;;;;;5112574;28;20384;-80
2024/03/29 08:58:19;;;;;;;1.60;1.00;;;12.50;99.90;;;;;;5114076;28;20398;-79
2024/03/29 09:00:53;;;;;;;1.77;1.00;;;13.10;99.90;;;;;;5113520;28;20376;-81
2024/03/29 09:03:18;;;;;;;2.70;1.00;;;12.40;99.90;;;;;;5112949;28;20475;-81
2024/03/29 09:05:44;;;;;;;1.48;1.30;;;12.40;99.90;;;;;;5111880;28;20471;-80
2024/03/29 09:08:10;;;;;;;1.73;1.10;;;;;;;;;;5112766;28;20993;-81
2024/03/29 09:10:35;;;;;;;1.42;1.00;;;13.30;99.90;;;;;;5102603;28;20395;-81
2024/03/29 09:13:02;;;;;;;1.80;1.20;;;;;;;;;;5082742;28;20901;-81
2024/03/29 09:15:28;;;;;;;2.13;1.20;;;13.20;99.90;;;;;;5088667;28;20389;-81
2024/03/29 09:17:54;;;;;;;1.38;0.80;;;13.50;99.90;;;;;;5088060;28;20397;-83
2024/03/29 09:20:20;;;;;;;1.20;0.80;;;13.50;99.90;;;;;;5086180;28;20880;-83
2024/03/29 09:22:46;;;;;;;2.80;0.80;;;;;;;;;;5087492;28;20394;-81
2024/03/29 09:25:14;;;;;;;3.10;1.10;;;;;;;;;;5090399;28;20422;-81
2024/03/29 09:27:42;;;;;;;1.70;1.10;;;;;;;;;;5084337;28;20397;-84
2024/03/29 09:30:10;;;;;;;1.30;1.07;;;13.10;99.90;;;;;;5084495;28;20395;-81
2024/03/29 09:32:36;;;;;;;2.10;1.10;;;14.00;99.90;;;;;;5085026;28;20477;-82
2024/03/29 09:35:02;;;;;;;1.60;0.90;;;13.60;99.90;;;;;;5091732;28;20918;-82
2024/03/29 09:37:27;;;;;;;0.90;0.80;;;13.50;99.90;;;;;;5086326;28;20402;-82
2024/03/29 09:39:53;;;;;;;1.30;1.08;;;13.90;99.90;;;;;;5097718;28;20368;-82
2024/03/29 09:42:19;;;;;;;1.90;1.00;;;;;;;;;;5100596;28;20391;-84
2024/03/29 09:44:45;;;;;;;1.00;0.82;;;13.80;99.90;;;;;;5105273;28;20421;-84
2024/03/29 09:47:14;;;;;;;2.10;1.10;;;14.80;99.90;;;;;;5101154;28;20916;-82
2024/03/29 09:49:44;;;;;;;1.20;0.90;;;14.70;99.90;;;;;;5090221;28;20844;-81
2024/03/29 09:52:10;;;;;;;2.10;0.90;;;14.70;99.90;;;;;;5086146;28;20393;-82
2024/03/29 09:54:36;;;;;;;1.30;0.90;;;;;;;;;;5086899;28;20377;-82
2024/03/29 09:57:01;;;;;;;0.90;0.75;;;14.20;99.90;;;;;;5086060;28;20399;-81
2024/03/29 09:59:28;;;;;;;0.90;0.73;;;14.70;99.90;;;;;;5087210;28;20388;-81
2024/03/29 10:01:55;;;;;;;1.27;0.80;;;14.70;99.90;;;;;;5084054;28;20399;-81
2024/03/29 10:04:23;;;;;;;1.10;0.70;;;14.00;99.90;;;;;;5083914;28;20440;-82
2024/03/29 10:06:50;;;;;;;0.93;0.80;;;;;;;;;;5085555;28;20463;-82
2024/03/29 10:09:19;;;;;;;1.50;1.08;;;14.70;99.90;;;;;;5088065;28;20857;-82
2024/03/29 10:11:45;;;;;;;1.92;1.50;;;15.20;99.90;;;;;;5090827;28;20381;-83
2024/03/29 10:14:11;;;;;;;1.30;1.20;;;;;;;;;;5089174;28;20390;-82
2024/03/29 10:16:37;;;;;;;1.70;1.00;;;15.20;99.90;;;;;;5088588;28;20876;-81
2024/03/29 10:19:04;;;;;;;2.50;0.90;;;14.80;99.90;;;;;;5086890;28;20413;-82
2024/03/29 10:21:29;;;;;;;1.60;1.00;;;15.20;99.90;;;;;;5086079;28;20533;-81
2024/03/29 10:23:55;;;;;;;1.70;1.00;;;15.20;99.90;;;;;;5090200;28;20896;-82
2024/03/29 10:26:21;;;;;;;1.40;0.95;;;14.50;99.90;;;;;;5090802;28;20409;-81
2024/03/29 10:28:47;;;;;;;0.82;0.80;;;15.00;99.90;;;;;;5091570;28;20386;-83
2024/03/29 10:31:16;;;;;;;0.98;0.90;;;14.90;99.90;;;;;;5093848;28;20401;-82
2024/03/29 10:33:44;;;;;;;1.60;0.90;;;15.50;99.90;;;;;;5088876;28;20406;-82
2024/03/29 10:36:12;;;;;;;1.15;0.80;;;14.50;99.90;;;;;;5087202;28;20395;-82
2024/03/29 10:41:06;;;;;;;0.70;0.63;;;15.60;99.90;;;;;;5066779;28;20448;-81
2024/03/29 10:43:32;;;;;;;1.40;0.90;;;15.50;99.90;;;;;;5065529;28;20469;-80
2024/03/29 10:46:00;;;;;;;1.20;0.50;;;15.20;99.90;;;;;;5062043;28;20397;-81
2024/03/29 10:48:28;;;;;;;1.10;0.65;;;15.50;99.90;;;;;;5056527;28;20386;-82
2024/03/29 10:50:54;;;;;;;1.20;0.65;;;15.20;99.90;;;;;;5037075;28;20395;-82
2024/03/29 10:53:25;;;;;;;1.10;0.60;;;15.70;99.90;;;;;;5033842;28;20479;-81
2024/03/29 10:55:54;;;;;;;0.70;0.50;;;15.20;99.90;;;;;;5032950;28;20450;-81
2024/03/29 10:58:24;;;;;;;1.08;0.70;;;;;;;;;;5033912;28;20426;-81
2024/03/29 11:00:53;;;;;;;1.70;0.70;;;15.00;99.90;;;;;;5036323;28;20423;-82
2024/03/29 11:03:37;;;;;;;2.15;0.70;;;15.50;99.90;;;;;;5032809;28;20411;-81
2024/03/29 11:06:05;;;;;;;0.80;0.60;;;15.30;99.90;;;;;;5034041;28;20426;-79
2024/03/29 11:08:37;;;;;;;0.90;0.63;;;15.20;99.90;;;;;;5042017;28;20379;-80
2024/03/29 11:11:05;;;;;;;1.20;0.80;;;16.00;99.90;;;;;;5032610;28;20419;-81
2024/03/29 11:13:43;;;;;;;1.15;0.52;;;15.30;99.90;;;;;;5036441;28;20458;-82
2024/03/29 11:16:08;;;;;;;0.60;0.60;;;14.50;99.90;;;;;;5036765;28;20904;-81
2024/03/29 11:18:36;;;;;;;0.80;0.70;;;16.30;99.90;;;;;;5036484;28;20383;-82
2024/03/29 11:21:06;;;;;;;1.90;0.93;;;;;;;;;;5044284;28;20381;-80
2024/03/29 11:23:32;;;;;;;1.70;1.23;;;16.70;99.90;;;;;;5045658;28;20398;-80
2024/03/29 11:25:59;;;;;;;1.88;0.80;;;16.40;99.90;;;;;;5044611;28;20403;-80
2024/03/29 11:28:34;;;;;;;1.80;0.80;;;16.40;99.90;;;;;;5042976;28;20449;-81
2024/03/29 11:31:07;;;;;;;0.98;0.60;;;16.60;99.90;;;;;;5045394;28;20387;-82
2024/03/29 11:33:46;;;;;;;2.67;0.60;;;16.80;99.90;;;;;;5043274;28;20396;-80
2024/03/29 11:36:31;;;;;;;1.23;0.67;;;16.60;99.90;;;;;;5037775;28;20391;-79
2024/03/29 11:38:58;;;;;;;2.70;0.70;;;16.40;99.90;;;;;;5041667;28;20400;-80
2024/03/29 11:41:25;;;;;;;1.70;0.80;;;15.80;99.90;;;;;;5050388;28;20463;-80
2024/03/29 11:43:51;;;;;;;0.85;0.50;;;15.80;99.90;;;;;;5036140;28;20472;-80
2024/03/29 11:46:18;;;;;;;1.13;0.60;;;16.40;99.90;;;;;;5021758;28;20411;-80
2024/03/29 11:48:45;;;;;;;1.48;0.80;;;15.40;99.90;;;;;;5022379;28;20399;-78
2024/03/29 11:51:14;;;;;;;1.70;0.80;;;15.90;99.90;;;;;;5034940;28;20481;-80
2024/03/29 11:53:43;;;;;;;0.90;0.63;;;17.30;99.90;;;;;;5026405;28;20411;-79
2024/03/29 11:56:11;;;;;;;1.50;0.67;;;16.60;99.90;;;;;;5031446;28;20413;-78
2024/03/29 11:58:37;;;;;;;1.60;0.70;;;16.50;99.90;;;;;;5039166;28;20406;-80
2024/03/29 12:01:03;;;;;;;1.33;0.63;;;17.70;99.90;;;;;;5042291;28;20445;-80
2024/03/29 12:03:30;;;;;;;1.77;0.73;;;17.00;99.90;;;;;;5037611;28;20391;-81
2024/03/29 12:06:03;;;;;;;1.85;0.60;;;18.20;99.90;;;;;;5011798;28;20424;-79
2024/03/29 12:08:33;;;;;;;1.40;0.73;;;18.40;99.90;;;;;;5011612;28;20405;-79
2024/03/29 12:11:00;;;;;;;2.30;1.05;;;18.20;99.90;;;;;;5023508;28;20395;-80
2024/03/29 12:13:27;;;;;;;1.83;0.80;;;18.30;99.90;;;;;;5014580;28;20973;-80
2024/03/29 12:15:53;;;;;;;1.10;0.73;;;18.60;99.90;;;;;;5031272;28;20418;-79
2024/03/29 12:18:24;;;;;;;1.50;0.70;;;19.10;99.90;;;;;;5035932;28;20469;-81
2024/03/29 12:20:50;;;;;;;0.95;0.50;;;19.60;99.90;;;;;;5019965;28;20387;-81
2024/03/29 12:23:20;;;;;;;1.67;0.73;;;18.80;99.90;;;;;;5033961;28;20403;-81
2024/03/29 12:25:47;;;;;;;2.28;0.73;;;21.60;99.90;;;;;;5024884;28;20408;-80
2024/03/29 12:28:14;;;;;;;1.15;0.70;;;20.70;99.90;;;;;;5033908;28;20391;-79
2024/03/29 12:30:48;;;;;;;1.73;0.70;;;18.50;99.90;;;;;;5016426;28;20407;-79
2024/03/29 12:33:21;;;;;;;1.08;0.70;;;20.70;99.90;;;;;;5029542;28;20372;-80
2024/03/29 12:35:48;;;;;;;1.20;0.80;;;19.70;99.90;;;;;;5036571;28;20393;-80
2024/03/29 12:38:15;;;;;;;1.60;0.90;;;18.60;99.90;;;;;;5031840;28;20518;-80
2024/03/29 12:40:47;;;;;;;1.30;0.60;;;19.50;99.90;;;;;;5039825;28;20406;-78
2024/03/29 12:43:21;;;;;;;1.75;0.80;;;20.20;99.90;;;;;;5023909;28;20406;-79
2024/03/29 12:45:49;;;;;;;1.50;0.70;;;18.80;99.90;;;;;;5023854;28;20472;-79
2024/03/29 12:48:20;;;;;;;0.63;0.50;;;18.90;99.90;;;;;;5035452;28;20391;-81
2024/03/29 12:50:47;;;;;;;1.20;0.80;;;18.70;99.90;;;;;;5037536;28;20387;-81
2024/03/29 12:53:15;;;;;;;1.60;1.10;;;19.60;99.90;;;;;;5022750;28;20391;-81
2024/03/29 12:55:46;;;;;;;0.90;0.50;;;19.20;99.90;;;;;;5030677;28;20757;-80
2024/03/29 12:58:13;;;;;;;2.90;0.80;;;19.30;99.90;;;;;;5033466;28;20763;-81
2024/03/29 13:00:39;;;;;;;1.00;0.80;;;18.90;99.90;;;;;;5035094;28;20978;-81
2024/03/29 13:03:06;;;;;;;3.00;0.80;;;20.50;99.90;;;;;;5027985;28;20395;-80
2024/03/29 13:05:37;;;;;;;2.80;0.70;;;21.30;99.90;;;;;;5039110;28;20886;-79
2024/03/29 13:08:04;;;;;;;1.10;0.68;;;20.00;99.90;;;;;;5019900;28;20398;-81
2024/03/29 13:10:30;;;;;;;2.70;1.13;;;19.60;99.90;;;;;;5036121;28;20379;-80
2024/03/29 13:12:56;;;;;;;1.80;1.10;;;20.60;99.90;;;;;;5036928;28;20455;-77
2024/03/29 13:15:24;;;;;;;2.00;0.80;;;20.70;99.90;;;;;;5032524;28;20457;-79
2024/03/29 13:17:51;;;;;;;2.70;0.90;;;20.00;99.90;;;;;;5011860;28;20759;-79